sensor_id;sensor_type;location;lat;lon;timestamp;P1;durP1;ratioP1;P2;durP2;ratioP2
23250;SDS011;11794;49.730;10.088;2023-08-17T00:02:23;0.80;;;0.20;;
23250;SDS011;11794;49.730;10.088;2023-08-17T00:04:49;1.33;;;0.43;;
23250;SDS011;11794;49.730;10.088;2023-08-17T00:07:14;0.50;;;0.10;;
23250;SDS011;11794;49.730;10.088;2023-08-17T00:09:40;1.13;;;0.20;;
23250;SDS011;11794;49.730;10.088;2023-08-17T00:12:06;0.85;;;0.20;;
23250;SDS011;11794;49.730;10.088;2023-08-17T00:14:32;0.80;;;0.30;;
23250;SDS011;11794;49.730;10.088;2023-08-17T00:16:57;0.90;;;0.20;;
23250;SDS011;11794;49.730;10.088;2023-08-17T00:19:23;3.63;;;0.60;;
23250;SDS011;11794;49.730;10.088;2023-08-17T00:21:48;2.08;;;0.40;;
23250;SDS011;11794;49.730;10.088;2023-08-17T00:24:14;0.50;;;0.20;;
23250;SDS011;11794;49.730;10.088;2023-08-17T00:26:39;0.90;;;0.20;;
23250;SDS011;11794;49.730;10.088;2023-08-17T00:29:05;0.73;;;0.20;;
23250;SDS011;11794;49.730;10.088;2023-08-17T00:31:30;1.87;;;0.50;;
23250;SDS011;11794;49.730;10.088;2023-08-17T00:33:56;0.80;;;0.20;;
23250;SDS011;11794;49.730;10.088;2023-08-17T00:36:21;0.80;;;0.20;;
23250;SDS011;11794;49.730;10.088;2023-08-17T00:38:47;1.17;;;0.30;;
23250;SDS011;11794;49.730;10.088;2023-08-17T00:41:12;0.93;;;0.20;;
23250;SDS011;11794;49.730;10.088;2023-08-17T00:43:38;0.52;;;0.20;;
23250;SDS011;11794;49.730;10.088;2023-08-17T00:46:03;1.40;;;0.30;;
23250;SDS011;11794;49.730;10.088;2023-08-17T00:48:29;1.10;;;0.30;;
23250;SDS011;11794;49.730;10.088;2023-08-17T00:50:56;0.65;;;0.20;;
23250;SDS011;11794;49.730;10.088;2023-08-17T00:53:23;0.55;;;0.13;;
23250;SDS011;11794;49.730;10.088;2023-08-17T00:55:52;1.10;;;0.30;;
23250;SDS011;11794;49.730;10.088;2023-08-17T00:58:18;0.70;;;0.27;;
23250;SDS011;11794;49.730;10.088;2023-08-17T01:00:45;0.95;;;0.20;;
23250;SDS011;11794;49.730;10.088;2023-08-17T01:03:11;1.50;;;0.30;;
23250;SDS011;11794;49.730;10.088;2023-08-17T01:05:37;0.90;;;0.20;;
23250;SDS011;11794;49.730;10.088;2023-08-17T01:08:03;1.50;;;0.40;;
23250;SDS011;11794;49.730;10.088;2023-08-17T01:16:24;0.88;;;0.22;;
23250;SDS011;11794;49.730;10.088;2023-08-17T01:18:54;1.02;;;0.28;;
23250;SDS011;11794;49.730;10.088;2023-08-17T01:21:21;0.93;;;0.30;;
23250;SDS011;11794;49.730;10.088;2023-08-17T01:23:49;1.37;;;0.40;;
23250;SDS011;11794;49.730;10.088;2023-08-17T01:26:15;0.77;;;0.20;;
23250;SDS011;11794;49.730;10.088;2023-08-17T01:28:45;1.13;;;0.30;;
23250;SDS011;11794;49.730;10.088;2023-08-17T01:31:12;0.43;;;0.13;;
23250;SDS011;11794;49.730;10.088;2023-08-17T01:33:47;2.15;;;0.28;;
23250;SDS011;11794;49.730;10.088;2023-08-17T01:36:19;1.20;;;0.40;;
23250;SDS011;11794;49.730;10.088;2023-08-17T01:38:57;0.28;;;0.10;;
23250;SDS011;11794;49.730;10.088;2023-08-17T01:41:24;0.73;;;0.20;;
23250;SDS011;11794;49.730;10.088;2023-08-17T01:43:50;0.90;;;0.20;;
23250;SDS011;11794;49.730;10.088;2023-08-17T01:46:18;0.63;;;0.10;;
23250;SDS011;11794;49.730;10.088;2023-08-17T01:48:44;2.57;;;0.50;;
23250;SDS011;11794;49.730;10.088;2023-08-17T01:51:10;1.23;;;0.20;;
23250;SDS011;11794;49.730;10.088;2023-08-17T01:53:41;1.33;;;0.32;;
23250;SDS011;11794;49.730;10.088;2023-08-17T01:56:06;1.57;;;0.30;;
23250;SDS011;11794;49.730;10.088;2023-08-17T01:58:32;1.00;;;0.30;;
23250;SDS011;11794;49.730;10.088;2023-08-17T02:00:57;1.33;;;0.30;;
23250;SDS011;11794;49.730;10.088;2023-08-17T02:03:23;1.65;;;0.50;;
23250;SDS011;11794;49.730;10.088;2023-08-17T02:05:48;2.60;;;0.57;;
23250;SDS011;11794;49.730;10.088;2023-08-17T02:08:14;1.13;;;0.37;;
23250;SDS011;11794;49.730;10.088;2023-08-17T02:10:40;1.38;;;0.30;;
23250;SDS011;11794;49.730;10.088;2023-08-17T02:13:05;1.23;;;0.30;;
23250;SDS011;11794;49.730;10.088;2023-08-17T02:15:31;0.83;;;0.17;;
23250;SDS011;11794;49.730;10.088;2023-08-17T02:17:59;2.08;;;0.63;;
23250;SDS011;11794;49.730;10.088;2023-08-17T02:20:26;2.00;;;0.30;;
23250;SDS011;11794;49.730;10.088;2023-08-17T02:22:51;0.93;;;0.20;;
23250;SDS011;11794;49.730;10.088;2023-08-17T02:25:17;2.47;;;0.22;;
23250;SDS011;11794;49.730;10.088;2023-08-17T02:27:42;1.43;;;0.20;;
23250;SDS011;11794;49.730;10.088;2023-08-17T02:30:08;1.57;;;0.40;;
23250;SDS011;11794;49.730;10.088;2023-08-17T02:32:34;0.77;;;0.20;;
23250;SDS011;11794;49.730;10.088;2023-08-17T02:34:59;2.87;;;0.40;;
23250;SDS011;11794;49.730;10.088;2023-08-17T02:37:25;2.33;;;0.60;;
23250;SDS011;11794;49.730;10.088;2023-08-17T02:39:51;0.80;;;0.20;;
23250;SDS011;11794;49.730;10.088;2023-08-17T02:42:16;0.70;;;0.22;;
23250;SDS011;11794;49.730;10.088;2023-08-17T02:44:42;1.10;;;0.30;;
23250;SDS011;11794;49.730;10.088;2023-08-17T02:47:07;1.83;;;0.73;;
23250;SDS011;11794;49.730;10.088;2023-08-17T02:49:32;1.15;;;0.20;;
23250;SDS011;11794;49.730;10.088;2023-08-17T02:51:58;1.40;;;0.63;;
23250;SDS011;11794;49.730;10.088;2023-08-17T02:54:23;1.13;;;0.20;;
23250;SDS011;11794;49.730;10.088;2023-08-17T02:56:49;1.33;;;0.35;;
23250;SDS011;11794;49.730;10.088;2023-08-17T02:59:15;1.37;;;0.30;;
23250;SDS011;11794;49.730;10.088;2023-08-17T03:01:41;1.70;;;0.40;;
23250;SDS011;11794;49.730;10.088;2023-08-17T03:04:06;1.40;;;0.60;;
23250;SDS011;11794;49.730;10.088;2023-08-17T03:06:32;1.40;;;0.30;;
23250;SDS011;11794;49.730;10.088;2023-08-17T03:08:57;1.93;;;0.47;;
23250;SDS011;11794;49.730;10.088;2023-08-17T03:11:23;1.63;;;0.43;;
23250;SDS011;11794;49.730;10.088;2023-08-17T03:13:48;1.17;;;0.22;;
23250;SDS011;11794;49.730;10.088;2023-08-17T03:16:14;1.57;;;0.40;;
23250;SDS011;11794;49.730;10.088;2023-08-17T03:18:40;1.85;;;0.40;;
23250;SDS011;11794;49.730;10.088;2023-08-17T03:21:06;1.33;;;0.20;;
23250;SDS011;11794;49.730;10.088;2023-08-17T03:23:32;1.75;;;0.45;;
23250;SDS011;11794;49.730;10.088;2023-08-17T03:25:58;2.27;;;0.43;;
23250;SDS011;11794;49.730;10.088;2023-08-17T03:28:23;1.58;;;0.40;;
23250;SDS011;11794;49.730;10.088;2023-08-17T03:30:54;1.90;;;0.60;;
23250;SDS011;11794;49.730;10.088;2023-08-17T03:33:20;1.52;;;0.45;;
23250;SDS011;11794;49.730;10.088;2023-08-17T03:35:45;1.43;;;0.37;;
23250;SDS011;11794;49.730;10.088;2023-08-17T03:38:11;1.25;;;0.30;;
23250;SDS011;11794;49.730;10.088;2023-08-17T03:40:37;2.13;;;0.57;;
23250;SDS011;11794;49.730;10.088;2023-08-17T03:43:02;1.37;;;0.40;;
23250;SDS011;11794;49.730;10.088;2023-08-17T03:45:28;3.33;;;0.57;;
23250;SDS011;11794;49.730;10.088;2023-08-17T03:47:55;1.52;;;0.30;;
23250;SDS011;11794;49.730;10.088;2023-08-17T03:50:20;0.70;;;0.20;;
23250;SDS011;11794;49.730;10.088;2023-08-17T03:52:46;1.07;;;0.30;;
23250;SDS011;11794;49.730;10.088;2023-08-17T03:55:11;1.85;;;0.45;;
23250;SDS011;11794;49.730;10.088;2023-08-17T03:57:37;1.70;;;0.40;;
23250;SDS011;11794;49.730;10.088;2023-08-17T04:00:03;1.67;;;0.32;;
23250;SDS011;11794;49.730;10.088;2023-08-17T04:02:30;2.40;;;0.60;;
23250;SDS011;11794;49.730;10.088;2023-08-17T04:04:55;1.27;;;0.33;;
23250;SDS011;11794;49.730;10.088;2023-08-17T04:07:21;2.07;;;0.40;;
23250;SDS011;11794;49.730;10.088;2023-08-17T04:09:49;4.10;;;0.40;;
23250;SDS011;11794;49.730;10.088;2023-08-17T04:12:15;2.30;;;0.40;;
23250;SDS011;11794;49.730;10.088;2023-08-17T04:14:40;2.67;;;0.30;;
23250;SDS011;11794;49.730;10.088;2023-08-17T04:17:06;6.13;;;0.30;;
23250;SDS011;11794;49.730;10.088;2023-08-17T04:19:31;2.13;;;0.40;;
23250;SDS011;11794;49.730;10.088;2023-08-17T04:21:57;2.17;;;0.70;;
23250;SDS011;11794;49.730;10.088;2023-08-17T04:24:23;0.70;;;0.20;;
23250;SDS011;11794;49.730;10.088;2023-08-17T04:26:49;3.30;;;0.50;;
23250;SDS011;11794;49.730;10.088;2023-08-17T04:29:14;1.70;;;0.32;;
23250;SDS011;11794;49.730;10.088;2023-08-17T04:31:39;0.80;;;0.20;;
23250;SDS011;11794;49.730;10.088;2023-08-17T04:34:05;1.27;;;0.40;;
23250;SDS011;11794;49.730;10.088;2023-08-17T04:36:30;2.20;;;0.40;;
23250;SDS011;11794;49.730;10.088;2023-08-17T04:38:56;2.47;;;0.60;;
23250;SDS011;11794;49.730;10.088;2023-08-17T04:41:21;1.40;;;0.47;;
23250;SDS011;11794;49.730;10.088;2023-08-17T04:43:47;1.55;;;0.40;;
23250;SDS011;11794;49.730;10.088;2023-08-17T04:46:14;1.77;;;0.50;;
23250;SDS011;11794;49.730;10.088;2023-08-17T04:48:39;1.67;;;0.43;;
23250;SDS011;11794;49.730;10.088;2023-08-17T04:51:05;3.33;;;0.67;;
23250;SDS011;11794;49.730;10.088;2023-08-17T04:53:31;1.65;;;0.35;;
23250;SDS011;11794;49.730;10.088;2023-08-17T04:55:56;1.53;;;0.37;;
23250;SDS011;11794;49.730;10.088;2023-08-17T04:58:23;1.65;;;0.32;;
23250;SDS011;11794;49.730;10.088;2023-08-17T05:00:48;1.73;;;0.50;;
23250;SDS011;11794;49.730;10.088;2023-08-17T05:03:14;2.03;;;0.57;;
23250;SDS011;11794;49.730;10.088;2023-08-17T05:05:39;1.30;;;0.30;;
23250;SDS011;11794;49.730;10.088;2023-08-17T05:08:05;1.53;;;0.40;;
23250;SDS011;11794;49.730;10.088;2023-08-17T05:10:30;1.88;;;0.40;;
23250;SDS011;11794;49.730;10.088;2023-08-17T05:12:56;1.80;;;0.40;;
23250;SDS011;11794;49.730;10.088;2023-08-17T05:15:21;1.03;;;0.27;;
23250;SDS011;11794;49.730;10.088;2023-08-17T05:17:47;1.33;;;0.30;;
23250;SDS011;11794;49.730;10.088;2023-08-17T05:20:12;0.77;;;0.20;;
23250;SDS011;11794;49.730;10.088;2023-08-17T05:22:38;1.27;;;0.33;;
23250;SDS011;11794;49.730;10.088;2023-08-17T05:25:04;1.23;;;0.30;;
23250;SDS011;11794;49.730;10.088;2023-08-17T05:27:30;2.72;;;0.93;;
23250;SDS011;11794;49.730;10.088;2023-08-17T05:29:55;1.40;;;0.33;;
23250;SDS011;11794;49.730;10.088;2023-08-17T05:32:21;1.47;;;0.40;;
23250;SDS011;11794;49.730;10.088;2023-08-17T05:34:46;2.15;;;0.50;;
23250;SDS011;11794;49.730;10.088;2023-08-17T05:37:12;1.60;;;0.60;;
23250;SDS011;11794;49.730;10.088;2023-08-17T05:39:39;1.42;;;0.25;;
23250;SDS011;11794;49.730;10.088;2023-08-17T05:42:05;1.90;;;0.47;;
23250;SDS011;11794;49.730;10.088;2023-08-17T05:44:31;2.13;;;0.60;;
23250;SDS011;11794;49.730;10.088;2023-08-17T05:46:57;1.45;;;0.38;;
23250;SDS011;11794;49.730;10.088;2023-08-17T05:49:23;1.67;;;0.30;;
23250;SDS011;11794;49.730;10.088;2023-08-17T05:51:48;1.98;;;0.35;;
23250;SDS011;11794;49.730;10.088;2023-08-17T05:54:14;2.20;;;0.47;;
23250;SDS011;11794;49.730;10.088;2023-08-17T05:56:39;1.63;;;0.40;;
23250;SDS011;11794;49.730;10.088;2023-08-17T05:59:09;2.60;;;0.60;;
23250;SDS011;11794;49.730;10.088;2023-08-17T06:01:35;1.77;;;0.50;;
23250;SDS011;11794;49.730;10.088;2023-08-17T06:04:01;1.80;;;0.50;;
23250;SDS011;11794;49.730;10.088;2023-08-17T06:06:27;2.43;;;0.43;;
23250;SDS011;11794;49.730;10.088;2023-08-17T06:08:52;2.22;;;0.75;;
23250;SDS011;11794;49.730;10.088;2023-08-17T06:11:18;1.40;;;0.50;;
23250;SDS011;11794;49.730;10.088;2023-08-17T06:13:43;1.38;;;0.45;;
23250;SDS011;11794;49.730;10.088;2023-08-17T06:16:09;2.13;;;0.47;;
23250;SDS011;11794;49.730;10.088;2023-08-17T06:18:35;1.50;;;0.40;;
23250;SDS011;11794;49.730;10.088;2023-08-17T06:21:02;2.85;;;0.75;;
23250;SDS011;11794;49.730;10.088;2023-08-17T06:23:27;1.97;;;0.60;;
23250;SDS011;11794;49.730;10.088;2023-08-17T06:25:56;2.07;;;0.57;;
23250;SDS011;11794;49.730;10.088;2023-08-17T06:28:22;1.60;;;0.30;;
23250;SDS011;11794;49.730;10.088;2023-08-17T06:30:51;2.03;;;0.50;;
23250;SDS011;11794;49.730;10.088;2023-08-17T06:33:18;1.60;;;0.50;;
23250;SDS011;11794;49.730;10.088;2023-08-17T06:35:44;2.07;;;0.47;;
23250;SDS011;11794;49.730;10.088;2023-08-17T06:38:09;1.40;;;0.25;;
23250;SDS011;11794;49.730;10.088;2023-08-17T06:40:35;1.57;;;0.43;;
23250;SDS011;11794;49.730;10.088;2023-08-17T06:43:01;2.80;;;0.57;;
23250;SDS011;11794;49.730;10.088;2023-08-17T06:45:26;2.40;;;0.70;;
23250;SDS011;11794;49.730;10.088;2023-08-17T06:47:52;2.58;;;0.70;;
23250;SDS011;11794;49.730;10.088;2023-08-17T06:50:17;3.23;;;0.80;;
23250;SDS011;11794;49.730;10.088;2023-08-17T06:52:43;3.53;;;0.70;;
23250;SDS011;11794;49.730;10.088;2023-08-17T06:55:08;1.95;;;0.63;;
23250;SDS011;11794;49.730;10.088;2023-08-17T06:57:35;3.38;;;0.77;;
23250;SDS011;11794;49.730;10.088;2023-08-17T07:00:01;2.37;;;0.63;;
23250;SDS011;11794;49.730;10.088;2023-08-17T07:02:26;2.90;;;0.75;;
23250;SDS011;11794;49.730;10.088;2023-08-17T07:04:52;2.70;;;0.73;;
23250;SDS011;11794;49.730;10.088;2023-08-17T07:07:18;2.17;;;0.57;;
23250;SDS011;11794;49.730;10.088;2023-08-17T07:09:43;2.23;;;0.73;;
23250;SDS011;11794;49.730;10.088;2023-08-17T07:12:09;1.77;;;0.63;;
23250;SDS011;11794;49.730;10.088;2023-08-17T07:14:34;2.17;;;0.47;;
23250;SDS011;11794;49.730;10.088;2023-08-17T07:17:00;2.20;;;0.80;;
23250;SDS011;11794;49.730;10.088;2023-08-17T07:19:25;2.20;;;0.52;;
23250;SDS011;11794;49.730;10.088;2023-08-17T07:21:51;4.30;;;0.70;;
23250;SDS011;11794;49.730;10.088;2023-08-17T07:24:18;2.92;;;0.82;;
23250;SDS011;11794;49.730;10.088;2023-08-17T07:26:43;1.70;;;0.40;;
23250;SDS011;11794;49.730;10.088;2023-08-17T07:29:09;3.15;;;0.85;;
23250;SDS011;11794;49.730;10.088;2023-08-17T07:31:35;2.83;;;0.83;;
23250;SDS011;11794;49.730;10.088;2023-08-17T07:34:02;1.47;;;0.47;;
23250;SDS011;11794;49.730;10.088;2023-08-17T07:36:29;2.85;;;0.90;;
23250;SDS011;11794;49.730;10.088;2023-08-17T07:38:54;2.47;;;0.93;;
23250;SDS011;11794;49.730;10.088;2023-08-17T07:41:20;2.97;;;0.80;;
23250;SDS011;11794;49.730;10.088;2023-08-17T07:43:45;2.67;;;0.90;;
23250;SDS011;11794;49.730;10.088;2023-08-17T07:46:11;3.33;;;0.93;;
23250;SDS011;11794;49.730;10.088;2023-08-17T07:48:36;1.70;;;0.57;;
23250;SDS011;11794;49.730;10.088;2023-08-17T07:51:02;3.73;;;1.00;;
23250;SDS011;11794;49.730;10.088;2023-08-17T07:53:27;2.73;;;0.70;;
23250;SDS011;11794;49.730;10.088;2023-08-17T07:55:53;3.20;;;1.00;;
23250;SDS011;11794;49.730;10.088;2023-08-17T07:58:19;3.70;;;1.20;;
23250;SDS011;11794;49.730;10.088;2023-08-17T08:00:44;3.20;;;0.87;;
23250;SDS011;11794;49.730;10.088;2023-08-17T08:03:10;3.15;;;1.13;;
23250;SDS011;11794;49.730;10.088;2023-08-17T08:05:35;3.30;;;1.17;;
23250;SDS011;11794;49.730;10.088;2023-08-17T08:08:01;3.23;;;0.90;;
23250;SDS011;11794;49.730;10.088;2023-08-17T08:10:27;2.88;;;0.98;;
23250;SDS011;11794;49.730;10.088;2023-08-17T08:12:53;3.03;;;1.02;;
23250;SDS011;11794;49.730;10.088;2023-08-17T08:15:19;3.58;;;1.30;;
23250;SDS011;11794;49.730;10.088;2023-08-17T08:17:44;3.03;;;1.33;;
23250;SDS011;11794;49.730;10.088;2023-08-17T08:20:10;3.93;;;1.43;;
23250;SDS011;11794;49.730;10.088;2023-08-17T08:22:36;3.35;;;1.52;;
23250;SDS011;11794;49.730;10.088;2023-08-17T08:25:01;5.00;;;2.03;;
23250;SDS011;11794;49.730;10.088;2023-08-17T08:27:27;4.25;;;1.88;;
23250;SDS011;11794;49.730;10.088;2023-08-17T08:29:52;3.60;;;1.80;;
23250;SDS011;11794;49.730;10.088;2023-08-17T08:32:18;3.85;;;1.40;;
23250;SDS011;11794;49.730;10.088;2023-08-17T08:34:43;5.17;;;1.80;;
23250;SDS011;11794;49.730;10.088;2023-08-17T08:37:09;3.22;;;1.25;;
23250;SDS011;11794;49.730;10.088;2023-08-17T08:39:47;5.33;;;2.17;;
23250;SDS011;11794;49.730;10.088;2023-08-17T08:42:15;3.83;;;1.77;;
23250;SDS011;11794;49.730;10.088;2023-08-17T08:44:41;3.72;;;1.58;;
23250;SDS011;11794;49.730;10.088;2023-08-17T08:47:06;4.27;;;1.80;;
23250;SDS011;11794;49.730;10.088;2023-08-17T08:49:32;3.83;;;1.65;;
23250;SDS011;11794;49.730;10.088;2023-08-17T08:52:02;4.13;;;1.92;;
23250;SDS011;11794;49.730;10.088;2023-08-17T08:54:32;4.78;;;2.22;;
23250;SDS011;11794;49.730;10.088;2023-08-17T08:57:01;4.43;;;1.70;;
23250;SDS011;11794;49.730;10.088;2023-08-17T08:59:28;3.25;;;1.42;;
23250;SDS011;11794;49.730;10.088;2023-08-17T09:01:55;3.30;;;1.65;;
23250;SDS011;11794;49.730;10.088;2023-08-17T09:04:23;3.97;;;1.70;;
23250;SDS011;11794;49.730;10.088;2023-08-17T09:06:50;4.30;;;1.70;;
23250;SDS011;11794;49.730;10.088;2023-08-17T09:09:16;3.50;;;1.70;;
23250;SDS011;11794;49.730;10.088;2023-08-17T09:11:42;3.88;;;2.10;;
23250;SDS011;11794;49.730;10.088;2023-08-17T09:14:08;4.47;;;1.80;;
23250;SDS011;11794;49.730;10.088;2023-08-17T09:16:34;4.70;;;2.00;;
23250;SDS011;11794;49.730;10.088;2023-08-17T09:19:00;4.22;;;1.85;;
23250;SDS011;11794;49.730;10.088;2023-08-17T09:21:25;4.37;;;2.23;;
23250;SDS011;11794;49.730;10.088;2023-08-17T09:23:54;4.60;;;2.17;;
23250;SDS011;11794;49.730;10.088;2023-08-17T09:26:21;4.65;;;2.53;;
23250;SDS011;11794;49.730;10.088;2023-08-17T09:28:48;4.32;;;2.00;;
23250;SDS011;11794;49.730;10.088;2023-08-17T09:31:14;4.10;;;2.10;;
23250;SDS011;11794;49.730;10.088;2023-08-17T09:33:40;4.30;;;2.10;;
23250;SDS011;11794;49.730;10.088;2023-08-17T09:36:05;3.87;;;1.80;;
23250;SDS011;11794;49.730;10.088;2023-08-17T09:38:31;4.43;;;1.95;;
23250;SDS011;11794;49.730;10.088;2023-08-17T09:40:57;4.13;;;2.10;;
23250;SDS011;11794;49.730;10.088;2023-08-17T09:43:23;4.40;;;2.30;;
23250;SDS011;11794;49.730;10.088;2023-08-17T09:45:53;4.22;;;2.20;;
23250;SDS011;11794;49.730;10.088;2023-08-17T09:48:19;4.95;;;2.42;;
23250;SDS011;11794;49.730;10.088;2023-08-17T09:50:45;5.38;;;2.53;;
23250;SDS011;11794;49.730;10.088;2023-08-17T09:53:12;4.60;;;2.50;;
23250;SDS011;11794;49.730;10.088;2023-08-17T09:55:40;4.43;;;2.38;;
23250;SDS011;11794;49.730;10.088;2023-08-17T09:58:07;4.00;;;2.10;;
23250;SDS011;11794;49.730;10.088;2023-08-17T10:00:39;4.13;;;2.15;;
23250;SDS011;11794;49.730;10.088;2023-08-17T10:03:13;3.80;;;1.90;;
23250;SDS011;11794;49.730;10.088;2023-08-17T10:05:40;4.95;;;2.30;;
23250;SDS011;11794;49.730;10.088;2023-08-17T10:08:07;5.35;;;2.75;;
23250;SDS011;11794;49.730;10.088;2023-08-17T10:10:38;7.68;;;2.55;;
23250;SDS011;11794;49.730;10.088;2023-08-17T10:13:08;4.72;;;2.20;;
23250;SDS011;11794;49.730;10.088;2023-08-17T10:15:51;4.03;;;2.17;;
23250;SDS011;11794;49.730;10.088;2023-08-17T10:21:31;4.55;;;2.33;;
23250;SDS011;11794;49.730;10.088;2023-08-17T10:24:04;4.53;;;2.33;;
23250;SDS011;11794;49.730;10.088;2023-08-17T10:26:32;4.85;;;2.63;;
23250;SDS011;11794;49.730;10.088;2023-08-17T10:28:58;5.15;;;2.42;;
23250;SDS011;11794;49.730;10.088;2023-08-17T10:31:26;4.05;;;2.03;;
23250;SDS011;11794;49.730;10.088;2023-08-17T10:33:52;4.65;;;2.30;;
23250;SDS011;11794;49.730;10.088;2023-08-17T10:36:18;5.83;;;2.73;;
23250;SDS011;11794;49.730;10.088;2023-08-17T10:38:44;4.43;;;2.53;;
23250;SDS011;11794;49.730;10.088;2023-08-17T10:41:10;4.73;;;2.70;;
23250;SDS011;11794;49.730;10.088;2023-08-17T10:43:53;5.40;;;3.00;;
23250;SDS011;11794;49.730;10.088;2023-08-17T10:46:19;4.70;;;2.60;;
23250;SDS011;11794;49.730;10.088;2023-08-17T10:48:45;4.97;;;3.03;;
23250;SDS011;11794;49.730;10.088;2023-08-17T10:51:11;4.77;;;2.77;;
23250;SDS011;11794;49.730;10.088;2023-08-17T10:53:42;4.80;;;2.65;;
23250;SDS011;11794;49.730;10.088;2023-08-17T10:56:12;4.78;;;2.83;;
23250;SDS011;11794;49.730;10.088;2023-08-17T10:58:39;5.28;;;2.90;;
23250;SDS011;11794;49.730;10.088;2023-08-17T11:01:07;6.15;;;2.95;;
23250;SDS011;11794;49.730;10.088;2023-08-17T11:03:32;5.23;;;3.53;;
23250;SDS011;11794;49.730;10.088;2023-08-17T11:05:58;5.25;;;2.83;;
23250;SDS011;11794;49.730;10.088;2023-08-17T11:08:40;5.57;;;2.88;;
23250;SDS011;11794;49.730;10.088;2023-08-17T11:11:17;4.80;;;3.17;;
23250;SDS011;11794;49.730;10.088;2023-08-17T11:13:45;4.93;;;3.00;;
23250;SDS011;11794;49.730;10.088;2023-08-17T11:16:13;4.78;;;2.85;;
23250;SDS011;11794;49.730;10.088;2023-08-17T11:18:39;5.78;;;2.83;;
23250;SDS011;11794;49.730;10.088;2023-08-17T11:21:09;5.07;;;3.47;;
23250;SDS011;11794;49.730;10.088;2023-08-17T11:23:36;4.57;;;2.70;;
23250;SDS011;11794;49.730;10.088;2023-08-17T11:26:02;5.70;;;3.50;;
23250;SDS011;11794;49.730;10.088;2023-08-17T11:28:32;5.10;;;3.00;;
23250;SDS011;11794;49.730;10.088;2023-08-17T11:31:01;5.10;;;3.35;;
23250;SDS011;11794;49.730;10.088;2023-08-17T11:33:28;4.93;;;3.70;;
23250;SDS011;11794;49.730;10.088;2023-08-17T11:35:59;4.75;;;3.50;;
23250;SDS011;11794;49.730;10.088;2023-08-17T11:38:29;5.03;;;3.65;;
23250;SDS011;11794;49.730;10.088;2023-08-17T11:41:06;5.32;;;3.70;;
23250;SDS011;11794;49.730;10.088;2023-08-17T11:43:33;5.07;;;3.17;;
23250;SDS011;11794;49.730;10.088;2023-08-17T11:45:59;5.17;;;2.90;;
23250;SDS011;11794;49.730;10.088;2023-08-17T11:48:26;4.55;;;3.15;;
23250;SDS011;11794;49.730;10.088;2023-08-17T11:50:52;4.78;;;3.42;;
23250;SDS011;11794;49.730;10.088;2023-08-17T11:53:18;5.28;;;3.30;;
23250;SDS011;11794;49.730;10.088;2023-08-17T11:55:43;4.87;;;3.47;;
23250;SDS011;11794;49.730;10.088;2023-08-17T11:58:09;4.80;;;3.38;;
23250;SDS011;11794;49.730;10.088;2023-08-17T12:00:35;4.93;;;3.03;;
23250;SDS011;11794;49.730;10.088;2023-08-17T12:03:02;4.78;;;3.10;;
23250;SDS011;11794;49.730;10.088;2023-08-17T12:05:30;4.97;;;3.10;;
23250;SDS011;11794;49.730;10.088;2023-08-17T12:07:57;5.10;;;3.50;;
23250;SDS011;11794;49.730;10.088;2023-08-17T12:10:27;5.13;;;3.20;;
23250;SDS011;11794;49.730;10.088;2023-08-17T12:12:58;5.03;;;3.20;;
23250;SDS011;11794;49.730;10.088;2023-08-17T12:15:29;5.20;;;3.35;;
23250;SDS011;11794;49.730;10.088;2023-08-17T12:17:58;5.43;;;3.85;;
23250;SDS011;11794;49.730;10.088;2023-08-17T12:20:24;5.40;;;3.40;;
23250;SDS011;11794;49.730;10.088;2023-08-17T12:22:50;5.38;;;3.45;;
23250;SDS011;11794;49.730;10.088;2023-08-17T12:25:15;7.60;;;3.70;;
23250;SDS011;11794;49.730;10.088;2023-08-17T12:27:41;8.90;;;3.60;;
23250;SDS011;11794;49.730;10.088;2023-08-17T12:30:28;4.80;;;3.22;;
23250;SDS011;11794;49.730;10.088;2023-08-17T12:32:54;5.22;;;3.47;;
23250;SDS011;11794;49.730;10.088;2023-08-17T12:35:20;5.50;;;3.50;;
23250;SDS011;11794;49.730;10.088;2023-08-17T12:37:48;5.75;;;3.65;;
23250;SDS011;11794;49.730;10.088;2023-08-17T12:40:13;5.00;;;3.33;;
23250;SDS011;11794;49.730;10.088;2023-08-17T12:42:39;5.13;;;3.50;;
23250;SDS011;11794;49.730;10.088;2023-08-17T12:45:04;5.20;;;3.13;;
23250;SDS011;11794;49.730;10.088;2023-08-17T12:47:30;5.55;;;3.63;;
23250;SDS011;11794;49.730;10.088;2023-08-17T12:49:56;5.97;;;3.87;;
23250;SDS011;11794;49.730;10.088;2023-08-17T12:52:21;5.68;;;3.83;;
23250;SDS011;11794;49.730;10.088;2023-08-17T12:54:47;5.30;;;3.80;;
23250;SDS011;11794;49.730;10.088;2023-08-17T12:57:12;5.53;;;3.88;;
23250;SDS011;11794;49.730;10.088;2023-08-17T12:59:38;5.50;;;4.40;;
23250;SDS011;11794;49.730;10.088;2023-08-17T13:02:03;5.50;;;4.07;;
23250;SDS011;11794;49.730;10.088;2023-08-17T13:04:29;5.50;;;3.60;;
23250;SDS011;11794;49.730;10.088;2023-08-17T13:06:54;5.23;;;3.87;;
23250;SDS011;11794;49.730;10.088;2023-08-17T13:09:20;5.72;;;4.47;;
23250;SDS011;11794;49.730;10.088;2023-08-17T13:11:46;5.57;;;4.00;;
23250;SDS011;11794;49.730;10.088;2023-08-17T13:14:12;5.43;;;4.05;;
23250;SDS011;11794;49.730;10.088;2023-08-17T13:16:39;5.87;;;4.43;;
23250;SDS011;11794;49.730;10.088;2023-08-17T13:19:04;7.30;;;3.92;;
23250;SDS011;11794;49.730;10.088;2023-08-17T13:21:30;5.27;;;3.93;;
23250;SDS011;11794;49.730;10.088;2023-08-17T13:23:55;5.87;;;4.30;;
23250;SDS011;11794;49.730;10.088;2023-08-17T13:26:22;5.60;;;3.80;;
23250;SDS011;11794;49.730;10.088;2023-08-17T13:28:47;5.60;;;3.75;;
23250;SDS011;11794;49.730;10.088;2023-08-17T13:31:13;6.80;;;4.50;;
23250;SDS011;11794;49.730;10.088;2023-08-17T13:33:38;5.13;;;3.93;;
23250;SDS011;11794;49.730;10.088;2023-08-17T13:36:04;5.55;;;4.97;;
23250;SDS011;11794;49.730;10.088;2023-08-17T13:38:30;5.67;;;3.90;;
23250;SDS011;11794;49.730;10.088;2023-08-17T13:40:56;5.38;;;4.13;;
23250;SDS011;11794;49.730;10.088;2023-08-17T13:43:22;5.68;;;3.92;;
23250;SDS011;11794;49.730;10.088;2023-08-17T13:45:47;5.37;;;3.57;;
23250;SDS011;11794;49.730;10.088;2023-08-17T13:48:13;5.38;;;3.88;;
23250;SDS011;11794;49.730;10.088;2023-08-17T13:50:39;5.77;;;3.60;;
23250;SDS011;11794;49.730;10.088;2023-08-17T13:53:04;5.20;;;3.40;;
23250;SDS011;11794;49.730;10.088;2023-08-17T13:55:30;5.57;;;3.80;;
23250;SDS011;11794;49.730;10.088;2023-08-17T13:57:56;4.95;;;3.83;;
23250;SDS011;11794;49.730;10.088;2023-08-17T14:00:23;7.80;;;5.55;;
23250;SDS011;11794;49.730;10.088;2023-08-17T14:02:49;5.50;;;4.33;;
23250;SDS011;11794;49.730;10.088;2023-08-17T14:05:14;7.70;;;3.38;;
23250;SDS011;11794;49.730;10.088;2023-08-17T14:07:40;4.60;;;3.20;;
23250;SDS011;11794;49.730;10.088;2023-08-17T14:10:06;5.13;;;3.53;;
23250;SDS011;11794;49.730;10.088;2023-08-17T14:12:31;5.60;;;3.45;;
23250;SDS011;11794;49.730;10.088;2023-08-17T14:14:57;5.10;;;3.27;;
23250;SDS011;11794;49.730;10.088;2023-08-17T14:17:23;5.10;;;3.30;;
23250;SDS011;11794;49.730;10.088;2023-08-17T14:19:49;5.40;;;3.40;;
23250;SDS011;11794;49.730;10.088;2023-08-17T14:22:14;4.60;;;2.83;;
23250;SDS011;11794;49.730;10.088;2023-08-17T14:24:40;5.73;;;3.30;;
23250;SDS011;11794;49.730;10.088;2023-08-17T14:27:05;5.23;;;3.27;;
23250;SDS011;11794;49.730;10.088;2023-08-17T14:29:31;4.95;;;2.80;;
23250;SDS011;11794;49.730;10.088;2023-08-17T14:31:56;5.03;;;2.70;;
23250;SDS011;11794;49.730;10.088;2023-08-17T14:34:22;4.93;;;2.47;;
23250;SDS011;11794;49.730;10.088;2023-08-17T14:36:47;4.72;;;2.33;;
23250;SDS011;11794;49.730;10.088;2023-08-17T14:39:13;5.40;;;2.40;;